createdAt,value
2022-08-07T00:01:44.084Z,1.88
2022-08-07T00:04:24.740Z,2.22
2022-08-07T00:06:55.263Z,1.70
2022-08-07T00:09:35.427Z,1.80
2022-08-07T00:12:06.695Z,1.92
2022-08-07T00:14:41.077Z,2.20
2022-08-07T00:17:14.766Z,1.95
2022-08-07T00:20:01.058Z,2.83
2022-08-07T00:22:35.358Z,3.17
2022-08-07T00:25:11.236Z,2.45
2022-08-07T00:27:52.470Z,2.60
2022-08-07T00:30:28.083Z,2.50
2022-08-07T00:33:00.901Z,2.47
2022-08-07T00:35:32.721Z,2.22
2022-08-07T00:38:06.767Z,1.70
2022-08-07T00:40:40.454Z,1.85
2022-08-07T00:44:00.915Z,1.80
2022-08-07T00:46:05.822Z,1.33
2022-08-07T00:48:42.285Z,1.75
2022-08-07T00:51:13.209Z,1.90
2022-08-07T00:53:50.032Z,1.80
2022-08-07T00:56:21.439Z,1.98
2022-08-07T01:01:21.865Z,2.38
2022-08-07T01:03:55.573Z,1.50
2022-08-07T01:06:31.800Z,1.60
2022-08-07T01:09:03.509Z,2.30
2022-08-07T01:12:24.070Z,1.80
2022-08-07T01:14:28.393Z,2.05
2022-08-07T01:17:00.392Z,1.80
2022-08-07T01:19:39.845Z,2.40
2022-08-07T01:22:16.210Z,3.47
2022-08-07T01:24:54.190Z,2.22
2022-08-07T01:27:32.131Z,2.20
2022-08-07T01:30:06.214Z,3.50
2022-08-07T01:32:37.289Z,2.55
2022-08-07T01:35:12.271Z,2.38
2022-08-07T01:37:50.628Z,2.15
2022-08-07T01:40:23.285Z,3.13
2022-08-07T01:43:03.305Z,3.42
2022-08-07T01:45:37.174Z,3.70
2022-08-07T01:48:29.273Z,3.58
2022-08-07T01:51:24.708Z,3.70
2022-08-07T01:54:12.141Z,3.30
2022-08-07T01:56:56.484Z,2.17
2022-08-07T01:59:45.212Z,2.03
2022-08-07T02:02:32.906Z,1.73
2022-08-07T02:05:48.049Z,2.05
2022-08-07T02:08:23.702Z,2.53
2022-08-07T02:10:58.325Z,1.70
2022-08-07T02:13:56.710Z,1.58
2022-08-07T02:16:32.855Z,2.17
2022-08-07T02:20:04.873Z,2.03
2022-08-07T02:22:00.918Z,1.15
2022-08-07T02:24:34.603Z,1.73
2022-08-07T02:27:08.210Z,1.40
2022-08-07T02:29:48.581Z,2.22
2022-08-07T02:32:30.372Z,1.40
2022-08-07T02:35:02.464Z,1.60
2022-08-07T02:37:43.838Z,1.38
2022-08-07T02:40:35.104Z,1.40
2022-08-07T02:43:07.891Z,1.35
2022-08-07T02:45:59.056Z,1.27
2022-08-07T02:48:35.713Z,1.75
2022-08-07T02:51:42.735Z,1.40
2022-08-07T02:54:11.096Z,1.75
2022-08-07T02:56:45.612Z,1.13
2022-08-07T02:59:24.177Z,0.93
2022-08-07T03:02:02.541Z,1.42
2022-08-07T03:04:34.347Z,1.60
2022-08-07T03:07:07.334Z,1.80
2022-08-07T03:09:47.225Z,1.48
2022-08-07T03:12:22.203Z,1.40
2022-08-07T03:15:02.217Z,1.67
2022-08-07T03:17:53.471Z,1.75
2022-08-07T03:20:28.624Z,1.70
2022-08-07T03:23:00.191Z,1.42
2022-08-07T03:25:41.507Z,2.10
2022-08-07T03:28:37.422Z,1.90
2022-08-07T03:31:24.684Z,1.48
2022-08-07T03:34:18.637Z,1.77
2022-08-07T03:36:57.454Z,1.70
2022-08-07T03:39:46.447Z,1.98
2022-08-07T03:42:22.528Z,1.20
2022-08-07T03:44:57.960Z,1.45
2022-08-07T03:50:22.950Z,1.15
2022-08-07T03:53:01.578Z,1.85
2022-08-07T03:55:53.176Z,1.90
2022-08-07T03:59:05.587Z,1.92
2022-08-07T04:01:17.330Z,1.80
2022-08-07T04:03:55.065Z,1.60
2022-08-07T04:06:36.121Z,1.70
2022-08-07T04:09:19.386Z,2.45
2022-08-07T04:12:23.605Z,2.05
2022-08-07T04:14:49.595Z,2.08
2022-08-07T04:17:23.017Z,1.73
2022-08-07T04:20:14.424Z,1.67
2022-08-07T04:22:53.404Z,1.50
2022-08-07T04:25:56.796Z,1.52
2022-08-07T04:28:28.200Z,1.45
2022-08-07T04:30:59.160Z,1.10
2022-08-07T04:33:33.665Z,1.67
2022-08-07T04:36:10.092Z,1.58
2022-08-07T04:38:42.521Z,0.93
2022-08-07T04:41:18.122Z,1.42
2022-08-07T04:44:12.241Z,1.88
2022-08-07T04:47:07.909Z,1.60
2022-08-07T04:50:11.467Z,1.10
2022-08-07T04:53:40.229Z,1.60
2022-08-07T04:58:15.667Z,1.45
2022-08-07T05:00:12.396Z,1.52
2022-08-07T05:04:00.539Z,1.50
2022-08-07T05:06:19.699Z,1.08
2022-08-07T05:09:46.157Z,1.20
2022-08-07T05:12:30.337Z,1.42
2022-08-07T05:15:23.231Z,1.38
2022-08-07T05:18:09.339Z,1.38
2022-08-07T05:20:48.642Z,1.02
2022-08-07T05:23:48.907Z,0.93
2022-08-07T05:26:26.392Z,1.92
2022-08-07T05:29:04.704Z,1.30
2022-08-07T05:31:40.961Z,1.17
2022-08-07T05:34:27.592Z,1.70
2022-08-07T05:36:59.111Z,1.27
2022-08-07T05:40:05.889Z,1.30
2022-08-07T05:42:34.436Z,1.80
2022-08-07T05:45:25.829Z,3.05
2022-08-07T05:48:07.486Z,2.08
2022-08-07T05:50:43.636Z,1.92
2022-08-07T05:54:09.580Z,2.38
2022-08-07T05:56:12.343Z,1.75
2022-08-07T05:58:52.410Z,1.50
2022-08-07T06:01:34.918Z,1.20
2022-08-07T06:04:09.983Z,1.52
2022-08-07T06:06:46.380Z,2.03
2022-08-07T06:09:20.426Z,2.45
2022-08-07T06:12:12.396Z,4.20
2022-08-07T06:14:49.260Z,5.45
2022-08-07T06:17:31.975Z,7.25
2022-08-07T06:20:25.446Z,7.60
2022-08-07T06:23:25.162Z,8.65
2022-08-07T06:25:58.619Z,7.90
2022-08-07T06:28:32.552Z,8.25
2022-08-07T06:31:04.151Z,7.72
2022-08-07T06:33:36.248Z,7.47
2022-08-07T06:36:12.850Z,6.68
2022-08-07T06:40:17.674Z,6.10
2022-08-07T06:42:06.253Z,5.82
2022-08-07T06:45:18.596Z,4.78
2022-08-07T06:47:59.644Z,4.40
2022-08-07T06:50:43.364Z,4.45
2022-08-07T06:55:28.227Z,5.10
2022-08-07T06:56:48.871Z,5.55
2022-08-07T07:00:12.663Z,5.80
2022-08-07T07:02:53.805Z,5.05
2022-08-07T07:05:15.200Z,4.70
2022-08-07T07:08:07.403Z,4.93
2022-08-07T07:10:47.519Z,4.38
2022-08-07T07:13:58.600Z,3.63
2022-08-07T07:16:45.173Z,2.47
2022-08-07T07:19:56.001Z,3.20
2022-08-07T07:22:36.032Z,2.80
2022-08-07T07:26:30.449Z,3.25
2022-08-07T07:28:42.484Z,3.00
2022-08-07T07:31:22.257Z,2.85
2022-08-07T07:33:57.433Z,2.63
2022-08-07T07:36:32.655Z,3.35
2022-08-07T07:39:05.475Z,3.33
2022-08-07T07:42:02.348Z,3.22
2022-08-07T07:44:30.818Z,2.78
2022-08-07T07:47:16.013Z,3.10
2022-08-07T07:50:35.168Z,2.67
2022-08-07T07:52:47.662Z,2.53
2022-08-07T07:55:21.180Z,3.03
2022-08-07T07:57:58.369Z,2.80
2022-08-07T08:00:34.035Z,2.88
2022-08-07T08:03:16.831Z,2.50
2022-08-07T08:06:03.484Z,2.63
2022-08-07T08:08:39.287Z,2.63
2022-08-07T08:11:16.439Z,2.58
2022-08-07T08:13:55.846Z,2.50
2022-08-07T08:16:35.431Z,2.67
2022-08-07T08:20:15.647Z,3.15
2022-08-07T08:22:20.068Z,2.90
2022-08-07T08:25:42.271Z,2.30
2022-08-07T08:28:38.679Z,2.30
2022-08-07T08:31:22.855Z,2.30
2022-08-07T08:34:26.858Z,1.80
2022-08-07T08:37:00.315Z,2.40
2022-08-07T08:39:39.490Z,1.67
2022-08-07T08:42:34.943Z,2.35
2022-08-07T08:45:41.830Z,2.33
2022-08-07T08:49:03.387Z,2.92
2022-08-07T08:52:12.696Z,3.30
2022-08-07T08:54:52.324Z,2.42
2022-08-07T08:57:52.618Z,2.47
2022-08-07T09:00:28.616Z,2.40
2022-08-07T09:03:08.859Z,2.45
2022-08-07T09:05:57.558Z,2.45
2022-08-07T09:08:49.326Z,1.52
2022-08-07T09:11:50.763Z,2.90
2022-08-07T09:14:32.113Z,2.17
2022-08-07T09:17:22.439Z,2.70
2022-08-07T09:20:34.963Z,2.65
2022-08-07T09:24:29.139Z,2.67
2022-08-07T09:26:13.902Z,2.58
2022-08-07T09:30:04.151Z,3.15
2022-08-07T09:32:17.067Z,3.17
2022-08-07T09:34:57.589Z,2.65
2022-08-07T09:38:10.442Z,2.75
2022-08-07T09:41:16.758Z,3.00
2022-08-07T09:44:30.018Z,2.75
2022-08-07T09:47:49.846Z,2.63
2022-08-07T09:50:23.804Z,3.08
2022-08-07T09:53:08.982Z,2.72
2022-08-07T09:56:06.963Z,2.42
2022-08-07T09:58:55.702Z,2.17
2022-08-07T10:02:14.350Z,2.47
2022-08-07T10:04:53.065Z,2.38
2022-08-07T10:07:31.786Z,2.33
2022-08-07T10:10:29.970Z,1.95
2022-08-07T10:13:54.952Z,2.47
2022-08-07T10:16:25.395Z,2.85
2022-08-07T10:19:21.553Z,2.38
2022-08-07T10:22:24.888Z,2.15
2022-08-07T10:25:52.958Z,2.92
2022-08-07T10:28:24.873Z,2.13
2022-08-07T10:31:19.557Z,2.80
2022-08-07T10:34:14.254Z,3.58
2022-08-07T10:37:12.672Z,2.90
2022-08-07T10:40:30.732Z,2.95
2022-08-07T10:43:36.032Z,2.42
2022-08-07T10:46:15.711Z,2.70
2022-08-07T10:48:59.235Z,2.53
2022-08-07T10:52:01.909Z,2.38
2022-08-07T10:54:55.222Z,2.83
2022-08-07T10:57:56.273Z,4.43
2022-08-07T11:00:36.757Z,5.35
2022-08-07T11:03:15.442Z,4.80
2022-08-07T11:06:05.038Z,5.63
2022-08-07T11:08:50.600Z,4.72
2022-08-07T11:11:35.728Z,5.15
2022-08-07T11:14:44.973Z,4.72
2022-08-07T11:17:47.331Z,4.90
2022-08-07T11:20:57.769Z,5.50
2022-08-07T11:23:38.850Z,5.80
2022-08-07T11:26:30.066Z,5.85
2022-08-07T11:29:13.247Z,4.88
2022-08-07T11:32:26.089Z,4.43
2022-08-07T11:35:01.644Z,5.63
2022-08-07T11:38:12.411Z,5.55
2022-08-07T11:41:29.685Z,5.18
2022-08-07T11:44:52.548Z,6.13
2022-08-07T11:47:55.847Z,4.85
2022-08-07T11:50:57.174Z,5.82
2022-08-07T11:54:00.882Z,4.68
2022-08-07T11:56:34.952Z,5.22
2022-08-07T11:59:22.254Z,5.50
2022-08-07T12:02:30.225Z,5.15
2022-08-07T12:05:28.659Z,5.40
2022-08-07T12:08:34.808Z,4.72
2022-08-07T12:11:32.589Z,5.30
2022-08-07T12:14:31.050Z,5.25
2022-08-07T12:17:19.999Z,5.57
2022-08-07T12:20:18.650Z,5.13
2022-08-07T12:23:14.500Z,5.00
2022-08-07T12:26:05.528Z,4.35
2022-08-07T12:29:07.928Z,5.05
2022-08-07T12:32:03.852Z,4.90
2022-08-07T12:34:42.142Z,5.47
2022-08-07T12:37:23.335Z,5.80
2022-08-07T12:40:03.342Z,3.53
2022-08-07T12:42:36.298Z,4.05
2022-08-07T12:45:14.202Z,4.15
2022-08-07T12:48:13.127Z,3.50
2022-08-07T12:51:17.730Z,4.20
2022-08-07T12:54:03.021Z,3.88
2022-08-07T12:56:55.080Z,4.15
2022-08-07T12:59:53.861Z,4.03
2022-08-07T13:02:42.368Z,4.28
2022-08-07T13:06:02.871Z,3.40
2022-08-07T13:09:01.751Z,4.00
2022-08-07T13:12:15.960Z,3.60
2022-08-07T13:15:23.477Z,4.10
2022-08-07T13:18:34.571Z,4.78
2022-08-07T13:21:09.677Z,3.97
2022-08-07T13:24:01.363Z,3.72
2022-08-07T13:26:57.459Z,3.47
2022-08-07T13:29:47.817Z,3.03
2022-08-07T13:32:34.996Z,2.53
2022-08-07T13:35:25.316Z,2.90
2022-08-07T13:41:41.421Z,2.75
2022-08-07T13:44:14.048Z,2.47
2022-08-07T13:46:50.089Z,2.55
2022-08-07T13:50:34.721Z,2.63
2022-08-07T13:52:32.550Z,2.20
2022-08-07T13:55:25.701Z,1.67
2022-08-07T13:58:31.754Z,1.85
2022-08-07T14:01:11.191Z,1.48
2022-08-07T14:04:06.817Z,2.22
2022-08-07T14:06:36.418Z,1.90
2022-08-07T14:09:16.978Z,2.25
2022-08-07T14:12:10.612Z,1.90
2022-08-07T14:14:49.297Z,1.95
2022-08-07T14:18:12.432Z,2.17
2022-08-07T14:20:42.188Z,1.70
2022-08-07T14:23:58.908Z,2.05
2022-08-07T14:26:30.340Z,2.70
2022-08-07T14:30:09.382Z,2.10
2022-08-07T14:32:19.136Z,1.88
2022-08-07T14:34:52.529Z,1.92
2022-08-07T14:40:26.323Z,1.85
2022-08-07T14:46:00.990Z,2.05
2022-08-07T14:48:33.780Z,2.05
2022-08-07T14:54:30.388Z,1.05
2022-08-07T14:56:53.750Z,1.45
2022-08-07T15:00:05.438Z,1.27
2022-08-07T15:02:31.699Z,1.13
2022-08-07T15:05:20.094Z,1.20
2022-08-07T15:07:54.815Z,0.90
2022-08-07T15:10:29.975Z,1.08
2022-08-07T15:13:11.721Z,2.65
2022-08-07T15:15:52.623Z,1.08
2022-08-07T15:18:45.524Z,1.23
2022-08-07T15:21:44.174Z,0.73
2022-08-07T15:25:14.052Z,1.02
2022-08-07T15:27:20.511Z,1.30
2022-08-07T15:30:06.371Z,0.98
2022-08-07T15:32:51.080Z,1.42
2022-08-07T15:38:51.754Z,1.30
2022-08-07T15:42:44.205Z,0.82
2022-08-07T15:44:23.817Z,1.58
2022-08-07T15:47:09.004Z,1.42
2022-08-07T15:50:04.839Z,1.35
2022-08-07T15:52:39.220Z,0.88
2022-08-07T15:55:13.970Z,1.15
2022-08-07T15:57:53.081Z,1.50
2022-08-07T16:00:43.747Z,1.63
2022-08-07T16:03:46.518Z,2.38
2022-08-07T16:06:15.631Z,2.15
2022-08-07T16:08:49.638Z,2.15
2022-08-07T16:11:30.131Z,1.70
2022-08-07T16:14:29.410Z,1.70
2022-08-07T16:18:02.552Z,1.30
2022-08-07T16:20:34.209Z,1.38
2022-08-07T16:23:53.037Z,1.00
2022-08-07T16:26:39.465Z,1.92
2022-08-07T16:30:11.910Z,1.10
2022-08-07T16:32:59.850Z,1.40
2022-08-07T16:36:08.307Z,1.52
2022-08-07T16:39:10.012Z,1.35
2022-08-07T16:42:17.089Z,1.40
2022-08-07T16:45:31.004Z,1.35
2022-08-07T16:48:06.574Z,1.42
2022-08-07T16:51:20.883Z,1.35
2022-08-07T16:57:15.471Z,1.35
2022-08-07T16:59:52.583Z,1.65
2022-08-07T17:02:51.163Z,1.60
2022-08-07T17:06:02.076Z,1.42
2022-08-07T17:09:04.344Z,1.27
2022-08-07T17:12:04.978Z,1.15
2022-08-07T17:15:23.631Z,0.90
2022-08-07T17:18:40.176Z,1.55
2022-08-07T17:21:26.301Z,1.40
2022-08-07T17:24:23.815Z,1.33
2022-08-07T17:27:06.169Z,0.90
2022-08-07T17:30:14.100Z,1.20
2022-08-07T17:33:00.007Z,1.63
2022-08-07T17:35:55.726Z,1.08
2022-08-07T17:38:50.367Z,1.33
2022-08-07T17:42:02.780Z,1.40
2022-08-07T17:44:45.359Z,1.85
2022-08-07T17:50:30.504Z,1.33
2022-08-07T17:53:08.744Z,1.25
2022-08-07T17:56:28.493Z,1.17
2022-08-07T17:59:16.910Z,0.98
2022-08-07T18:02:00.162Z,1.40
2022-08-07T18:05:21.965Z,1.10
2022-08-07T18:08:24.109Z,1.30
2022-08-07T18:11:53.751Z,1.30
2022-08-07T18:14:29.491Z,1.00
2022-08-07T18:17:06.525Z,1.70
2022-08-07T18:21:11.508Z,1.50
2022-08-07T18:22:56.498Z,1.23
2022-08-07T18:25:40.307Z,1.02
2022-08-07T18:28:58.374Z,0.85
2022-08-07T18:31:41.477Z,0.90
2022-08-07T18:34:35.955Z,1.00
2022-08-07T18:38:55.492Z,0.88
2022-08-07T18:40:53.527Z,1.02
2022-08-07T18:43:48.881Z,0.98
2022-08-07T18:46:30.408Z,0.88
2022-08-07T18:50:31.745Z,0.70
2022-08-07T18:52:56.479Z,1.05
2022-08-07T18:55:57.710Z,0.95
2022-08-07T18:59:47.845Z,0.80
2022-08-07T19:02:36.638Z,1.25
2022-08-07T19:06:03.390Z,1.33
2022-08-07T19:08:58.672Z,1.52
2022-08-07T19:12:11.044Z,1.42
2022-08-07T19:16:05.803Z,1.65
2022-08-07T19:18:54.547Z,1.63
2022-08-07T19:21:58.476Z,1.38
2022-08-07T19:24:43.229Z,1.13
2022-08-07T19:28:58.224Z,1.38
2022-08-07T19:31:06.040Z,1.35
2022-08-07T19:33:13.394Z,1.30
2022-08-07T19:35:53.659Z,2.05
2022-08-07T19:38:29.445Z,1.35
2022-08-07T19:41:02.290Z,1.85
2022-08-07T19:43:48.697Z,1.92
2022-08-07T19:46:29.158Z,1.92
2022-08-07T19:49:09.852Z,1.70
2022-08-07T19:51:52.212Z,1.42
2022-08-07T19:54:33.669Z,2.33
2022-08-07T19:58:03.352Z,1.65
2022-08-07T20:00:29.127Z,1.80
2022-08-07T20:03:04.516Z,2.10
2022-08-07T20:06:00.785Z,1.23
2022-08-07T20:08:39.533Z,1.65
2022-08-07T20:12:22.863Z,1.58
2022-08-07T20:14:31.385Z,1.98
2022-08-07T20:17:06.912Z,2.25
2022-08-07T20:19:48.364Z,1.38
2022-08-07T20:22:34.017Z,1.52
2022-08-07T20:25:19.928Z,2.13
2022-08-07T20:27:58.715Z,1.58
2022-08-07T20:33:37.011Z,1.92
2022-08-07T20:36:06.275Z,2.28
2022-08-07T20:38:59.557Z,1.65
2022-08-07T20:41:40.109Z,1.45
2022-08-07T20:44:13.042Z,1.20
2022-08-07T20:46:45.795Z,1.50
2022-08-07T20:49:58.114Z,1.30
2022-08-07T20:52:24.448Z,1.65
2022-08-07T20:55:00.769Z,1.88
2022-08-07T20:58:02.488Z,1.80
2022-08-07T21:00:48.995Z,1.38
2022-08-07T21:03:23.374Z,1.58
2022-08-07T21:06:28.219Z,1.20
2022-08-07T21:09:14.038Z,1.13
2022-08-07T21:11:51.068Z,0.90
2022-08-07T21:14:33.184Z,1.10
2022-08-07T21:18:03.270Z,1.58
2022-08-07T21:20:05.553Z,0.82
2022-08-07T21:22:51.039Z,1.10
2022-08-07T21:25:59.129Z,1.25
2022-08-07T21:28:48.910Z,1.45
2022-08-07T21:32:41.704Z,1.23
2022-08-07T21:34:48.151Z,1.40
2022-08-07T21:38:01.137Z,1.63
2022-08-07T21:40:35.996Z,1.58
2022-08-07T21:43:10.715Z,1.25
2022-08-07T21:46:05.332Z,0.90
2022-08-07T21:48:55.723Z,1.02
2022-08-07T21:51:51.050Z,0.82
2022-08-07T21:54:48.224Z,1.10
2022-08-07T21:57:53.729Z,1.50
2022-08-07T22:00:25.861Z,1.77
2022-08-07T22:03:05.650Z,1.30
2022-08-07T22:06:04.944Z,0.90
2022-08-07T22:08:52.014Z,1.02
2022-08-07T22:11:30.512Z,0.90
2022-08-07T22:14:05.009Z,1.00
2022-08-07T22:16:46.829Z,0.98
2022-08-07T22:19:57.238Z,0.90
2022-08-07T22:22:36.543Z,0.85
2022-08-07T22:25:17.260Z,1.10
2022-08-07T22:28:32.177Z,0.77
2022-08-07T22:31:55.889Z,1.02
2022-08-07T22:34:13.243Z,1.20
2022-08-07T22:37:09.453Z,1.00
2022-08-07T22:40:18.432Z,1.08
2022-08-07T22:42:53.576Z,1.10
2022-08-07T22:46:04.629Z,1.15
2022-08-07T22:48:55.521Z,1.20
2022-08-07T22:51:52.222Z,0.93
2022-08-07T22:54:40.651Z,1.38
2022-08-07T22:57:52.753Z,1.30
2022-08-07T23:00:55.003Z,1.17
2022-08-07T23:03:58.802Z,1.13
2022-08-07T23:06:51.308Z,1.00
2022-08-07T23:10:37.351Z,0.90
2022-08-07T23:14:10.746Z,1.60
2022-08-07T23:17:04.276Z,1.30
2022-08-07T23:20:08.836Z,1.88
2022-08-07T23:22:52.296Z,1.13
2022-08-07T23:25:50.335Z,1.17
2022-08-07T23:28:54.383Z,0.68
2022-08-07T23:32:49.662Z,0.80
2022-08-07T23:35:01.593Z,0.98
2022-08-07T23:38:01.269Z,0.68
2022-08-07T23:40:59.817Z,0.80
2022-08-07T23:43:45.421Z,0.60
2022-08-07T23:46:23.477Z,0.80
2022-08-07T23:49:49.947Z,0.68
2022-08-07T23:53:11.905Z,0.60
2022-08-07T23:55:54.226Z,0.70
2022-08-07T23:58:47.457Z,0.45
